createdAt,value
2023-02-05T00:00:39.699Z,25.64
2023-02-05T00:02:39.879Z,25.61
2023-02-05T00:04:39.866Z,25.74
2023-02-05T00:06:39.765Z,25.75
2023-02-05T00:08:39.838Z,25.65
2023-02-05T00:10:39.919Z,25.60
2023-02-05T00:12:39.895Z,25.64
2023-02-05T00:14:39.884Z,25.60
2023-02-05T00:16:39.996Z,25.61
2023-02-05T00:18:39.904Z,25.63
2023-02-05T00:20:39.873Z,25.63
2023-02-05T00:22:39.963Z,25.61
2023-02-05T00:24:39.917Z,25.61
2023-02-05T00:26:39.853Z,25.75
2023-02-05T00:28:39.868Z,25.64
2023-02-05T00:30:39.990Z,25.65
2023-02-05T00:32:39.876Z,25.64
2023-02-05T00:34:39.930Z,25.65
2023-02-05T00:36:39.751Z,25.61
2023-02-05T00:38:39.938Z,25.78
2023-02-05T00:40:39.940Z,25.64
2023-02-05T00:42:39.940Z,25.74
2023-02-05T00:44:39.931Z,25.65
2023-02-05T00:46:39.944Z,25.63
2023-02-05T00:48:39.840Z,25.72
2023-02-05T00:50:39.937Z,25.63
2023-02-05T00:52:40.005Z,25.65
2023-02-05T00:54:39.890Z,25.64
2023-02-05T00:56:39.850Z,25.55
2023-02-05T00:58:39.919Z,25.65
2023-02-05T01:00:39.958Z,25.61
2023-02-05T01:02:40.041Z,25.65
2023-02-05T01:04:39.950Z,25.60
2023-02-05T01:06:39.925Z,25.63
2023-02-05T01:08:39.963Z,25.65
2023-02-05T01:10:39.950Z,25.65
2023-02-05T01:12:39.977Z,25.58
2023-02-05T01:14:39.982Z,25.65
2023-02-05T01:16:40.007Z,25.65
2023-02-05T01:18:39.855Z,25.76
2023-02-05T01:20:39.940Z,25.61
2023-02-05T01:22:39.963Z,25.63
2023-02-05T01:24:39.981Z,25.60
2023-02-05T01:26:39.944Z,25.60
2023-02-05T01:28:39.983Z,25.65
2023-02-05T01:30:40.119Z,25.65
2023-02-05T01:32:39.985Z,25.73
2023-02-05T01:34:39.970Z,25.65
2023-02-05T01:36:39.953Z,25.61
2023-02-05T01:38:39.941Z,25.57
2023-02-05T01:40:40.021Z,25.61
2023-02-05T01:42:39.854Z,25.60
2023-02-05T01:44:39.980Z,25.65
2023-02-05T01:46:40.040Z,25.63
2023-02-05T01:48:40.011Z,25.60
2023-02-05T01:50:40.001Z,25.57
2023-02-05T01:52:40.040Z,25.58
2023-02-05T01:54:39.842Z,25.75
2023-02-05T01:56:39.958Z,25.64
2023-02-05T01:58:40.041Z,25.75
2023-02-05T02:00:39.978Z,25.74
2023-02-05T02:02:39.869Z,25.75
2023-02-05T02:04:39.814Z,25.64
2023-02-05T02:06:40.054Z,25.65
2023-02-05T02:08:40.068Z,25.65
2023-02-05T02:10:40.016Z,25.61
2023-02-05T02:12:40.019Z,25.63
2023-02-05T02:14:40.037Z,25.60
2023-02-05T02:16:39.977Z,25.74
2023-02-05T02:18:39.880Z,25.61
2023-02-05T02:20:40.002Z,25.72
2023-02-05T02:22:39.963Z,25.62
2023-02-05T02:24:40.050Z,25.60
2023-02-05T02:26:39.912Z,25.65
2023-02-05T02:28:39.776Z,25.63
2023-02-05T02:30:40.098Z,25.60
2023-02-05T02:32:40.015Z,25.60
2023-02-05T02:34:40.002Z,25.63
2023-02-05T02:36:40.026Z,25.64
2023-02-05T02:38:40.074Z,25.58
2023-02-05T02:40:39.970Z,25.61
2023-02-05T02:42:40.060Z,25.61
2023-02-05T02:44:40.046Z,25.72
2023-02-05T02:46:40.102Z,25.63
2023-02-05T02:48:40.081Z,25.65
2023-02-05T02:50:39.900Z,25.58
2023-02-05T02:52:40.005Z,25.63
2023-02-05T02:54:39.982Z,25.60
2023-02-05T02:56:40.059Z,25.60
2023-02-05T02:58:40.175Z,25.72
2023-02-05T03:00:40.052Z,25.65
2023-02-05T03:02:40.094Z,25.40
2023-02-05T03:04:40.016Z,25.61
2023-02-05T03:06:40.086Z,25.79
2023-02-05T03:08:40.092Z,25.65
2023-02-05T03:10:40.081Z,25.61
2023-02-05T03:12:40.105Z,25.60
2023-02-05T03:14:40.124Z,25.60
2023-02-05T03:16:40.092Z,25.61
2023-02-05T03:18:40.096Z,25.65
2023-02-05T03:20:40.090Z,25.65
2023-02-05T03:22:40.099Z,25.71
2023-02-05T03:24:40.116Z,25.63
2023-02-05T03:26:39.964Z,25.75
2023-02-05T03:28:40.149Z,25.57
2023-02-05T03:30:40.012Z,25.60
2023-02-05T03:32:40.112Z,25.65
2023-02-05T03:34:40.083Z,25.75
2023-02-05T03:36:40.128Z,25.65
2023-02-05T03:38:40.109Z,25.65
2023-02-05T03:40:40.092Z,25.65
2023-02-05T03:42:40.140Z,25.60
2023-02-05T03:44:39.967Z,25.77
2023-02-05T03:46:40.147Z,25.61
2023-02-05T03:48:40.093Z,25.61
2023-02-05T03:50:40.101Z,25.77
2023-02-05T03:52:40.159Z,25.60
2023-02-05T03:54:40.117Z,25.75
2023-02-05T03:56:40.146Z,25.61
2023-02-05T03:58:40.160Z,25.64
2023-02-05T04:00:40.152Z,25.60
2023-02-05T04:02:40.167Z,25.76
2023-02-05T04:04:40.133Z,25.60
2023-02-05T04:06:40.097Z,25.58
2023-02-05T04:08:40.111Z,25.65
2023-02-05T04:10:40.157Z,25.60
2023-02-05T04:12:40.151Z,25.63
2023-02-05T04:14:40.172Z,25.61
2023-02-05T04:16:40.121Z,25.63
2023-02-05T04:18:40.129Z,25.63
2023-02-05T04:20:40.082Z,25.61
2023-02-05T04:22:40.034Z,25.61
2023-02-05T04:24:40.140Z,25.56
2023-02-05T04:26:40.295Z,25.65
2023-02-05T04:28:40.105Z,25.72
2023-02-05T04:30:40.073Z,25.61
2023-02-05T04:32:40.035Z,25.63
2023-02-05T04:34:40.141Z,25.57
2023-02-05T04:36:40.216Z,25.64
2023-02-05T04:38:40.139Z,25.63
2023-02-05T04:40:40.191Z,25.60
2023-02-05T04:42:40.189Z,25.71
2023-02-05T04:44:40.035Z,25.60
2023-02-05T04:46:40.209Z,25.57
2023-02-05T04:48:40.177Z,25.65
2023-02-05T04:50:40.181Z,25.64
2023-02-05T04:52:40.211Z,25.65
2023-02-05T04:54:40.075Z,25.60
2023-02-05T04:56:40.180Z,25.64
2023-02-05T04:58:40.183Z,25.65
2023-02-05T05:00:40.197Z,25.61
2023-02-05T05:02:40.282Z,25.61
2023-02-05T05:04:42.091Z,25.63
2023-02-05T05:06:40.175Z,25.72
2023-02-05T05:08:40.202Z,25.65
2023-02-05T05:10:40.194Z,25.56
2023-02-05T05:12:40.209Z,25.64
2023-02-05T05:14:40.236Z,25.65
2023-02-05T05:16:40.164Z,25.29
2023-02-05T05:18:40.200Z,25.75
2023-02-05T05:20:42.468Z,25.60
2023-02-05T05:22:40.049Z,25.64
2023-02-05T05:24:40.225Z,25.65
2023-02-05T05:26:40.152Z,25.64
2023-02-05T05:28:40.199Z,25.65
2023-02-05T05:30:40.307Z,25.62
2023-02-05T05:32:40.160Z,25.61
2023-02-05T05:34:40.181Z,25.61
2023-02-05T05:36:40.260Z,25.56
2023-02-05T05:38:40.216Z,25.64
2023-02-05T05:40:40.229Z,25.64
2023-02-05T05:42:40.246Z,25.61
2023-02-05T05:44:40.234Z,25.71
2023-02-05T05:46:40.254Z,25.72
2023-02-05T05:48:40.293Z,25.60
2023-02-05T05:50:40.232Z,25.61
2023-02-05T05:52:40.146Z,25.61
2023-02-05T05:54:40.197Z,25.60
2023-02-05T05:56:40.287Z,25.63
2023-02-05T05:58:40.234Z,25.75
2023-02-05T06:00:40.132Z,25.61
2023-02-05T06:02:40.307Z,25.38
2023-02-05T06:04:40.373Z,25.60
2023-02-05T06:06:40.080Z,25.61
2023-02-05T06:08:40.322Z,25.61
2023-02-05T06:10:40.268Z,25.61
2023-02-05T06:12:40.368Z,25.63
2023-02-05T06:14:40.286Z,25.64
2023-02-05T06:16:40.317Z,25.72
2023-02-05T06:18:40.143Z,25.63
2023-02-05T06:20:40.292Z,25.58
2023-02-05T06:22:40.271Z,25.00
2023-02-05T06:24:40.313Z,24.93
2023-02-05T06:26:40.263Z,24.82
2023-02-05T06:28:40.269Z,24.81
2023-02-05T06:30:40.188Z,24.73
2023-02-05T06:32:40.320Z,24.66
2023-02-05T06:34:40.317Z,24.62
2023-02-05T06:36:40.324Z,24.59
2023-02-05T06:38:40.279Z,24.52
2023-02-05T06:40:40.263Z,24.44
2023-02-05T06:42:40.267Z,24.40
2023-02-05T06:44:40.294Z,24.43
2023-02-05T06:46:40.316Z,24.33
2023-02-05T06:48:40.317Z,24.29
2023-02-05T06:50:40.251Z,24.25
2023-02-05T06:52:40.317Z,24.16
2023-02-05T06:54:40.269Z,24.23
2023-02-05T06:56:40.326Z,24.09
2023-02-05T06:58:40.330Z,24.09
2023-02-05T07:00:40.323Z,24.07
2023-02-05T07:02:40.359Z,24.00
2023-02-05T07:04:40.290Z,24.00
2023-02-05T07:06:40.342Z,23.89
2023-02-05T07:08:40.274Z,23.93
2023-02-05T07:10:40.361Z,23.88
2023-02-05T07:12:40.340Z,23.84
2023-02-05T07:14:40.312Z,23.80
2023-02-05T07:16:40.301Z,23.68
2023-02-05T07:18:40.115Z,23.78
2023-02-05T07:20:40.325Z,23.73
2023-02-05T07:22:40.378Z,23.67
2023-02-05T07:24:40.276Z,23.38
2023-02-05T07:26:40.302Z,23.66
2023-02-05T07:28:40.313Z,23.63
2023-02-05T07:30:40.403Z,23.57
2023-02-05T07:32:40.383Z,23.55
2023-02-05T07:34:40.383Z,23.58
2023-02-05T07:36:40.401Z,23.53
2023-02-05T07:38:40.350Z,23.54
2023-02-05T07:40:40.203Z,23.65
2023-02-05T07:42:40.353Z,23.55
2023-02-05T07:44:40.369Z,23.59
2023-02-05T07:46:40.426Z,23.53
2023-02-05T07:48:40.342Z,23.53
2023-02-05T07:50:40.185Z,23.53
2023-02-05T07:52:40.222Z,23.55
2023-02-05T07:54:40.298Z,23.53
2023-02-05T07:56:40.384Z,23.43
2023-02-05T07:58:40.260Z,23.49
2023-02-05T08:00:40.405Z,23.47
2023-02-05T08:02:40.332Z,23.54
2023-02-05T08:04:40.322Z,23.44
2023-02-05T08:06:40.408Z,23.54
2023-02-05T08:08:40.439Z,23.49
2023-02-05T08:10:40.350Z,23.45
2023-02-05T08:12:40.364Z,23.49
2023-02-05T08:14:40.419Z,23.54
2023-02-05T08:16:40.360Z,23.50
2023-02-05T08:18:40.407Z,23.48
2023-02-05T08:20:40.194Z,23.63
2023-02-05T08:22:40.364Z,23.57
2023-02-05T08:24:40.394Z,23.68
2023-02-05T08:26:40.404Z,23.67
2023-02-05T08:28:40.425Z,23.70
2023-02-05T08:30:40.404Z,23.70
2023-02-05T08:32:40.254Z,23.72
2023-02-05T08:34:40.393Z,23.73
2023-02-05T08:36:40.457Z,23.77
2023-02-05T08:38:40.329Z,23.76
2023-02-05T08:40:40.432Z,23.80
2023-02-05T08:42:40.648Z,23.79
2023-02-05T08:44:40.266Z,23.81
2023-02-05T08:46:49.360Z,23.82
2023-02-05T08:48:40.550Z,23.87
2023-02-05T08:50:40.457Z,23.94
2023-02-05T08:52:40.468Z,24.01
2023-02-05T08:54:40.430Z,24.02
2023-02-05T08:56:40.428Z,24.12
2023-02-05T08:58:40.420Z,24.18
2023-02-05T09:00:40.461Z,24.22
2023-02-05T09:02:40.427Z,24.35
2023-02-05T09:04:40.474Z,24.39
2023-02-05T09:06:40.449Z,24.60
2023-02-05T09:08:40.507Z,24.64
2023-02-05T09:10:40.443Z,24.69
2023-02-05T09:12:40.493Z,24.85
2023-02-05T09:14:40.366Z,24.95
2023-02-05T09:16:40.567Z,24.97
2023-02-05T09:18:40.525Z,25.06
2023-02-05T09:20:40.522Z,24.99
2023-02-05T09:22:40.485Z,25.15
2023-02-05T09:24:40.458Z,25.28
2023-02-05T09:26:40.411Z,25.22
2023-02-05T09:28:40.542Z,25.12
2023-02-05T09:30:40.585Z,25.23
2023-02-05T09:32:40.486Z,25.21
2023-02-05T09:34:40.508Z,25.24
2023-02-05T09:36:40.493Z,25.21
2023-02-05T09:38:40.556Z,25.26
2023-02-05T09:40:40.496Z,25.23
2023-02-05T09:42:40.540Z,25.28
2023-02-05T09:44:40.501Z,25.23
2023-02-05T09:46:40.472Z,25.32
2023-02-05T09:48:40.508Z,25.29
2023-02-05T09:50:40.495Z,25.34
2023-02-05T09:52:40.509Z,25.31
2023-02-05T09:54:40.473Z,25.36
2023-02-05T09:56:40.612Z,25.42
2023-02-05T09:58:40.380Z,25.26
2023-02-05T10:00:40.536Z,25.28
2023-02-05T10:02:40.517Z,25.28
2023-02-05T10:04:40.599Z,25.38
2023-02-05T10:06:40.360Z,25.46
2023-02-05T10:08:40.534Z,25.43
2023-02-05T10:10:40.508Z,25.52
2023-02-05T10:12:40.415Z,25.56
2023-02-05T10:14:40.515Z,25.53
2023-02-05T10:16:40.534Z,25.52
2023-02-05T10:18:40.518Z,25.61
2023-02-05T10:20:40.496Z,25.52
2023-02-05T10:22:40.552Z,25.47
2023-02-05T10:24:40.524Z,25.52
2023-02-05T10:26:40.617Z,25.52
2023-02-05T10:28:40.475Z,25.46
2023-02-05T10:30:40.629Z,25.51
2023-02-05T10:32:40.538Z,25.52
2023-02-05T10:34:40.528Z,25.52
2023-02-05T10:36:40.553Z,25.52
2023-02-05T10:38:40.513Z,25.52
2023-02-05T10:40:40.574Z,25.46
2023-02-05T10:42:40.542Z,25.52
2023-02-05T10:44:40.549Z,25.54
2023-02-05T10:46:40.494Z,25.49
2023-02-05T10:48:40.590Z,25.51
2023-02-05T10:50:40.427Z,25.54
2023-02-05T10:52:40.546Z,25.52
2023-02-05T10:54:40.560Z,25.58
2023-02-05T10:56:40.375Z,25.53
2023-02-05T10:58:40.534Z,25.51
2023-02-05T11:00:40.640Z,25.59
2023-02-05T11:02:40.660Z,25.52
2023-02-05T11:04:40.526Z,25.38
2023-02-05T11:06:40.605Z,25.37
2023-02-05T11:08:40.590Z,25.32
2023-02-05T11:10:40.584Z,25.25
2023-02-05T11:12:40.505Z,25.24
2023-02-05T11:14:40.582Z,25.24
2023-02-05T11:16:40.550Z,25.21
2023-02-05T11:18:40.588Z,25.22
2023-02-05T11:20:40.636Z,25.12
2023-02-05T11:22:40.575Z,25.09
2023-02-05T11:24:40.608Z,25.09
2023-02-05T11:26:40.532Z,25.10
2023-02-05T11:28:40.589Z,25.08
2023-02-05T11:30:52.280Z,25.10
2023-02-05T11:32:40.640Z,25.09
2023-02-05T11:34:40.455Z,25.10
2023-02-05T11:36:40.552Z,24.76
2023-02-05T11:38:40.590Z,25.19
2023-02-05T11:40:40.617Z,25.31
2023-02-05T11:42:40.553Z,25.29
2023-02-05T11:44:40.594Z,25.44
2023-02-05T11:46:40.711Z,25.55
2023-02-05T11:48:40.616Z,25.46
2023-02-05T11:50:40.568Z,25.46
2023-02-05T11:52:40.632Z,25.36
2023-02-05T11:54:40.706Z,25.28
2023-02-05T11:56:40.691Z,25.23
2023-02-05T11:58:40.651Z,25.20
2023-02-05T12:00:40.594Z,25.25
2023-02-05T12:02:40.758Z,25.23
2023-02-05T12:04:40.500Z,25.28
2023-02-05T12:06:40.634Z,25.34
2023-02-05T12:08:40.726Z,25.37
2023-02-05T12:10:40.483Z,25.45
2023-02-05T12:12:40.626Z,25.42
2023-02-05T12:14:40.628Z,25.49
2023-02-05T12:16:40.503Z,25.51
2023-02-05T12:18:40.799Z,25.45
2023-02-05T12:20:40.633Z,25.49
2023-02-05T12:22:40.475Z,25.37
2023-02-05T12:24:40.664Z,25.39
2023-02-05T12:26:40.676Z,25.39
2023-02-05T12:28:40.670Z,25.38
2023-02-05T12:30:40.781Z,25.37
2023-02-05T12:32:40.688Z,25.29
2023-02-05T12:34:40.649Z,25.33
2023-02-05T12:36:40.693Z,25.34
2023-02-05T12:38:40.623Z,25.37
2023-02-05T12:40:40.708Z,25.38
2023-02-05T12:42:40.653Z,25.24
2023-02-05T12:44:40.662Z,25.31
2023-02-05T12:46:40.671Z,25.29
2023-02-05T12:48:40.685Z,25.25
2023-02-05T12:50:40.679Z,25.23
2023-02-05T12:52:40.674Z,25.25
2023-02-05T12:54:40.684Z,25.31
2023-02-05T12:56:40.652Z,25.29
2023-02-05T12:58:40.627Z,25.32
2023-02-05T13:00:40.678Z,25.23
2023-02-05T13:02:40.708Z,25.22
2023-02-05T13:04:40.664Z,25.27
2023-02-05T13:06:40.685Z,25.13
2023-02-05T13:08:40.700Z,25.22
2023-02-05T13:10:40.695Z,25.26
2023-02-05T13:12:40.709Z,25.27
2023-02-05T13:14:40.735Z,25.42
2023-02-05T13:16:40.662Z,25.49
2023-02-05T13:18:40.699Z,25.52
2023-02-05T13:20:40.550Z,25.49
2023-02-05T13:22:40.738Z,25.47
2023-02-05T13:24:40.747Z,25.42
2023-02-05T13:26:40.670Z,25.23
2023-02-05T13:28:40.764Z,25.17
2023-02-05T13:30:40.774Z,25.23
2023-02-05T13:32:40.718Z,25.17
2023-02-05T13:34:40.727Z,25.13
2023-02-05T13:36:40.606Z,25.09
2023-02-05T13:38:40.693Z,25.13
2023-02-05T13:40:40.742Z,25.24
2023-02-05T13:42:40.715Z,24.98
2023-02-05T13:44:40.743Z,25.44
2023-02-05T13:46:40.731Z,25.52
2023-02-05T13:48:40.704Z,25.52
2023-02-05T13:50:40.694Z,25.52
2023-02-05T13:52:40.742Z,25.36
2023-02-05T13:54:40.733Z,25.29
2023-02-05T13:56:40.624Z,25.34
2023-02-05T13:58:40.730Z,25.19
2023-02-05T14:00:40.755Z,25.15
2023-02-05T14:02:40.596Z,25.12
2023-02-05T14:04:40.563Z,25.13
2023-02-05T14:06:40.714Z,25.13
2023-02-05T14:08:40.687Z,25.09
2023-02-05T14:10:40.724Z,25.08
2023-02-05T14:12:40.740Z,25.08
2023-02-05T14:14:40.718Z,25.08
2023-02-05T14:16:40.780Z,25.09
2023-02-05T14:18:40.766Z,25.03
2023-02-05T14:20:40.833Z,25.05
2023-02-05T14:22:40.742Z,25.09
2023-02-05T14:24:40.716Z,25.53
2023-02-05T14:26:40.755Z,25.52
2023-02-05T14:28:40.784Z,25.44
2023-02-05T14:30:40.820Z,25.53
2023-02-05T14:32:40.757Z,25.47
2023-02-05T14:34:40.873Z,25.37
2023-02-05T14:36:40.653Z,25.52
2023-02-05T14:38:40.770Z,25.40
2023-02-05T14:40:40.879Z,25.39
2023-02-05T14:42:40.647Z,25.17
2023-02-05T14:44:40.763Z,25.09
2023-02-05T14:46:40.884Z,24.99
2023-02-05T14:48:40.803Z,25.08
2023-02-05T14:50:40.815Z,24.99
2023-02-05T14:52:40.734Z,25.01
2023-02-05T14:54:40.690Z,25.03
2023-02-05T14:56:40.820Z,24.92
2023-02-05T14:58:40.663Z,24.83
2023-02-05T15:00:40.688Z,24.76
2023-02-05T15:02:40.987Z,24.75
2023-02-05T15:04:40.829Z,24.66
2023-02-05T15:06:40.659Z,24.61
2023-02-05T15:08:40.823Z,24.66
2023-02-05T15:10:40.822Z,24.61
2023-02-05T15:12:40.847Z,24.55
2023-02-05T15:14:40.675Z,24.52
2023-02-05T15:16:40.840Z,24.52
2023-02-05T15:18:40.733Z,24.52
2023-02-05T15:20:40.687Z,24.51
2023-02-05T15:22:40.838Z,24.43
2023-02-05T15:24:40.812Z,24.41
2023-02-05T15:26:40.671Z,24.43
2023-02-05T15:28:40.672Z,24.33
2023-02-05T15:30:40.831Z,24.34
2023-02-05T15:32:40.800Z,24.36
2023-02-05T15:34:40.841Z,24.27
2023-02-05T15:36:40.668Z,24.25
2023-02-05T15:38:40.794Z,24.22
2023-02-05T15:40:40.862Z,24.15
2023-02-05T15:42:40.741Z,24.11
2023-02-05T15:44:40.884Z,24.16
2023-02-05T15:46:40.958Z,24.10
2023-02-05T15:48:40.842Z,24.02
2023-02-05T15:50:40.823Z,24.02
2023-02-05T15:52:40.844Z,24.04
2023-02-05T15:54:40.880Z,23.96
2023-02-05T15:56:40.910Z,23.88
2023-02-05T15:58:40.908Z,23.82
2023-02-05T16:00:40.852Z,23.75
2023-02-05T16:02:40.962Z,23.73
2023-02-05T16:04:40.869Z,23.81
2023-02-05T16:06:40.812Z,23.67
2023-02-05T16:08:40.882Z,23.62
2023-02-05T16:10:40.854Z,23.59
2023-02-05T16:12:40.890Z,23.49
2023-02-05T16:14:40.876Z,23.50
2023-02-05T16:16:40.863Z,23.51
2023-02-05T16:18:40.905Z,23.47
2023-02-05T16:20:40.840Z,23.42
2023-02-05T16:22:40.892Z,23.42
2023-02-05T16:24:40.848Z,23.40
2023-02-05T16:26:40.755Z,23.39
2023-02-05T16:28:40.902Z,23.36
2023-02-05T16:30:40.941Z,23.37
2023-02-05T16:32:40.915Z,23.27
2023-02-05T16:34:40.838Z,23.38
2023-02-05T16:36:40.905Z,23.25
2023-02-05T16:38:40.884Z,23.25
2023-02-05T16:40:41.023Z,23.25
2023-02-05T16:42:40.919Z,23.27
2023-02-05T16:44:40.945Z,23.29
2023-02-05T16:46:40.926Z,23.26
2023-02-05T16:48:40.867Z,23.29
2023-02-05T16:50:40.753Z,23.34
2023-02-05T16:52:40.949Z,27.08
2023-02-05T16:54:40.904Z,27.22
2023-02-05T16:56:40.749Z,25.58
2023-02-05T16:58:40.920Z,25.61
2023-02-05T17:00:40.825Z,25.58
2023-02-05T17:02:40.905Z,25.57
2023-02-05T17:04:40.928Z,25.60
2023-02-05T17:06:40.989Z,25.53
2023-02-05T17:08:40.881Z,25.64
2023-02-05T17:10:40.929Z,25.61
2023-02-05T17:12:40.941Z,25.75
2023-02-05T17:14:40.967Z,25.58
2023-02-05T17:16:41.045Z,25.53
2023-02-05T17:18:40.959Z,25.73
2023-02-05T17:20:40.938Z,25.58
2023-02-05T17:22:41.002Z,25.63
2023-02-05T17:24:40.931Z,25.58
2023-02-05T17:26:41.009Z,25.65
2023-02-05T17:28:42.372Z,25.62
2023-02-05T17:30:41.001Z,25.61
2023-02-05T17:32:40.981Z,25.65
2023-02-05T17:34:40.982Z,25.63
2023-02-05T17:36:40.965Z,25.57
2023-02-05T17:38:40.966Z,25.52
2023-02-05T17:40:40.906Z,25.56
2023-02-05T17:42:40.771Z,25.57
2023-02-05T17:44:40.798Z,25.58
2023-02-05T17:46:41.093Z,25.60
2023-02-05T17:48:41.006Z,25.54
2023-02-05T17:50:40.873Z,25.64
2023-02-05T17:52:41.022Z,25.57
2023-02-05T17:54:40.986Z,25.60
2023-02-05T17:56:40.936Z,25.58
2023-02-05T17:58:41.032Z,25.65
2023-02-05T18:00:40.991Z,25.64
2023-02-05T18:02:40.875Z,25.60
2023-02-05T18:04:40.978Z,25.60
2023-02-05T18:06:41.012Z,25.60
2023-02-05T18:08:40.931Z,25.58
2023-02-05T18:10:41.012Z,25.54
2023-02-05T18:12:41.015Z,25.65
2023-02-05T18:14:41.013Z,25.55
2023-02-05T18:16:41.057Z,25.58
2023-02-05T18:18:41.024Z,25.58
2023-02-05T18:20:41.029Z,25.57
2023-02-05T18:22:41.011Z,25.72
2023-02-05T18:24:40.804Z,25.72
2023-02-05T18:26:40.993Z,25.60
2023-02-05T18:28:41.012Z,25.64
2023-02-05T18:30:40.957Z,25.63
2023-02-05T18:32:40.881Z,25.58
2023-02-05T18:34:40.995Z,25.60
2023-02-05T18:36:40.993Z,25.61
2023-02-05T18:38:41.042Z,25.58
2023-02-05T18:40:41.048Z,25.62
2023-02-05T18:42:40.966Z,25.57
2023-02-05T18:44:41.018Z,25.57
2023-02-05T18:46:41.079Z,25.60
2023-02-05T18:48:40.965Z,25.58
2023-02-05T18:50:40.985Z,25.65
2023-02-05T18:52:40.890Z,25.54
2023-02-05T18:54:40.884Z,25.60
2023-02-05T18:56:40.902Z,25.29
2023-02-05T18:58:40.995Z,25.52
2023-02-05T19:00:40.997Z,25.56
2023-02-05T19:02:41.058Z,25.56
2023-02-05T19:04:40.843Z,25.60
2023-02-05T19:06:41.092Z,25.60
2023-02-05T19:08:41.074Z,25.54
2023-02-05T19:10:40.971Z,25.60
2023-02-05T19:12:41.122Z,25.57
2023-02-05T19:14:40.890Z,25.60
2023-02-05T19:16:41.070Z,25.61
2023-02-05T19:18:40.963Z,25.63
2023-02-05T19:20:40.969Z,25.57
2023-02-05T19:22:40.895Z,25.60
2023-02-05T19:24:41.065Z,25.58
2023-02-05T19:26:41.065Z,25.65
2023-02-05T19:28:41.045Z,25.58
2023-02-05T19:30:41.197Z,25.54
2023-02-05T19:32:41.092Z,25.57
2023-02-05T19:34:41.079Z,25.54
2023-02-05T19:36:40.983Z,25.54
2023-02-05T19:38:41.002Z,25.53
2023-02-05T19:40:41.101Z,25.63
2023-02-05T19:42:40.888Z,25.52
2023-02-05T19:44:41.048Z,25.58
2023-02-05T19:46:41.119Z,25.52
2023-02-05T19:48:40.860Z,25.52
2023-02-05T19:50:41.008Z,25.52
2023-02-05T19:52:40.974Z,25.53
2023-02-05T19:54:40.995Z,25.52
2023-02-05T19:56:41.032Z,25.52
2023-02-05T19:58:41.069Z,25.56
2023-02-05T20:00:41.090Z,25.52
2023-02-05T20:02:41.159Z,25.52
2023-02-05T20:04:41.277Z,25.53
2023-02-05T20:06:41.052Z,25.57
2023-02-05T20:08:41.102Z,25.52
2023-02-05T20:10:40.906Z,25.56
2023-02-05T20:12:40.998Z,25.56
2023-02-05T20:14:41.092Z,25.62
2023-02-05T20:16:41.149Z,25.52
2023-02-05T20:18:41.101Z,25.52
2023-02-05T20:20:41.118Z,25.54
2023-02-05T20:22:41.131Z,25.53
2023-02-05T20:24:41.078Z,25.58
2023-02-05T20:26:40.954Z,25.54
2023-02-05T20:28:41.060Z,25.53
2023-02-05T20:30:41.157Z,25.52
2023-02-05T20:32:41.154Z,25.52
2023-02-05T20:34:41.152Z,25.54
2023-02-05T20:36:41.186Z,25.52
2023-02-05T20:38:41.152Z,25.51
2023-02-05T20:40:41.165Z,25.52
2023-02-05T20:42:41.088Z,25.49
2023-02-05T20:44:41.153Z,25.54
2023-02-05T20:46:41.197Z,25.52
2023-02-05T20:48:41.154Z,25.52
2023-02-05T20:50:41.167Z,25.52
2023-02-05T20:52:41.111Z,25.57
2023-02-05T20:54:41.168Z,25.52
2023-02-05T20:56:41.202Z,25.55
2023-02-05T20:58:41.274Z,25.60
2023-02-05T21:00:41.223Z,25.52
2023-02-05T21:02:41.196Z,25.65
2023-02-05T21:04:41.259Z,25.54
2023-02-05T21:06:41.175Z,25.52
2023-02-05T21:08:41.200Z,25.50
2023-02-05T21:10:41.166Z,25.52
2023-02-05T21:12:41.162Z,25.52
2023-02-05T21:14:41.185Z,25.57
2023-02-05T21:16:41.073Z,25.52
2023-02-05T21:18:41.117Z,25.56
2023-02-05T21:20:41.256Z,25.60
2023-02-05T21:22:41.299Z,25.60
2023-02-05T21:24:41.197Z,25.52
2023-02-05T21:26:41.351Z,25.52
2023-02-05T21:28:41.212Z,25.52
2023-02-05T21:30:41.280Z,25.58
2023-02-05T21:32:41.193Z,25.51
2023-02-05T21:34:41.184Z,25.37
2023-02-05T21:36:41.222Z,25.52
2023-02-05T21:38:41.096Z,25.49
2023-02-05T21:40:41.207Z,25.53
2023-02-05T21:42:41.209Z,25.52
2023-02-05T21:44:41.244Z,25.54
2023-02-05T21:46:41.258Z,25.52
2023-02-05T21:48:41.198Z,25.53
2023-02-05T21:50:41.224Z,25.52
2023-02-05T21:52:41.129Z,25.54
2023-02-05T21:54:41.266Z,25.56
2023-02-05T21:56:41.248Z,25.52
2023-02-05T21:58:41.174Z,25.52
2023-02-05T22:00:41.156Z,25.52
2023-02-05T22:02:41.234Z,25.52
2023-02-05T22:04:41.219Z,25.60
2023-02-05T22:06:41.326Z,25.52
2023-02-05T22:08:41.218Z,25.52
2023-02-05T22:10:41.253Z,25.52
2023-02-05T22:12:41.253Z,25.56
2023-02-05T22:14:41.239Z,25.52
2023-02-05T22:16:41.346Z,25.57
2023-02-05T22:18:41.250Z,25.54
2023-02-05T22:20:41.215Z,25.52
2023-02-05T22:22:41.241Z,25.52
2023-02-05T22:24:41.202Z,25.61
2023-02-05T22:26:41.083Z,25.52
2023-02-05T22:28:41.224Z,25.53
2023-02-05T22:30:41.179Z,25.52
2023-02-05T22:32:41.232Z,25.54
2023-02-05T22:34:43.467Z,25.52
2023-02-05T22:36:41.273Z,25.50
2023-02-05T22:38:41.275Z,25.60
2023-02-05T22:40:41.213Z,25.52
2023-02-05T22:42:41.064Z,25.52
2023-02-05T22:44:41.297Z,25.52
2023-02-05T22:46:41.272Z,25.52
2023-02-05T22:48:41.277Z,25.52
2023-02-05T22:50:41.678Z,25.52
2023-02-05T22:52:41.284Z,25.54
2023-02-05T22:54:41.289Z,25.61
2023-02-05T22:56:41.318Z,25.58
2023-02-05T22:58:41.147Z,25.52
2023-02-05T23:00:41.148Z,25.60
2023-02-05T23:02:41.292Z,25.54
2023-02-05T23:04:41.279Z,25.53
2023-02-05T23:06:41.263Z,25.58
2023-02-05T23:08:41.255Z,25.60
2023-02-05T23:10:41.278Z,25.58
2023-02-05T23:12:41.322Z,25.65
2023-02-05T23:14:41.305Z,25.57
2023-02-05T23:16:41.362Z,25.54
2023-02-05T23:18:41.327Z,25.56
2023-02-05T23:20:41.319Z,25.80
2023-02-05T23:22:41.292Z,25.58
2023-02-05T23:24:41.257Z,25.57
2023-02-05T23:26:41.330Z,25.57
2023-02-05T23:28:41.168Z,25.61
2023-02-05T23:30:41.362Z,25.57
2023-02-05T23:32:41.298Z,25.54
2023-02-05T23:34:41.320Z,25.58
2023-02-05T23:36:41.303Z,25.60
2023-02-05T23:38:41.228Z,25.57
2023-02-05T23:40:41.128Z,25.58
2023-02-05T23:42:41.158Z,25.65
2023-02-05T23:44:41.295Z,25.65
2023-02-05T23:46:41.346Z,25.65
2023-02-05T23:48:41.350Z,25.60
2023-02-05T23:50:41.337Z,25.54
2023-02-05T23:52:41.304Z,25.65
2023-02-05T23:54:41.337Z,25.56
2023-02-05T23:56:41.267Z,25.56
2023-02-05T23:58:41.384Z,25.58
